Pagrindinis puslapis
METAR-TAF:

METAR-TAF

Oro uostai :

Akaba, Jordanija

platuma: 29-38N, ilguma: 035-01E, Aukštis: 53 m

Dabartinis oras

Ataskaita buvo paskelbta 55 minutes, ne 14:00 UTC
Vėjas 12 kt iš Šiaurės
Temperatūra 35°C
Drėgmė 27%
Slėgis 1007 hPa
Matomumas 10 km arba daugiau
Mažai debesys ne aukštis 3000 ft

METAR: OJAQ 161400Z 36012KT 9999 FEW030 35/13 Q1007 NOSIG

Laikas: 17:55 (14:55 UTC)

Prognozė

Ataskaita buvo paskelbta 3 valandos ir 31 minutes, ne 11:24 UTC
Prognozė galioja nuo 16 metu 12 UTC su 17 metu 18 UTC
Vėjas 12 kt iš Šiaurės
Matomumas: 7000 m
Mažai debesys ne aukštis 3000 ft
Laikinai
nuo 16 metu 12 UTC su 17 metu 18 UTC
Vėjas 18 kt iš Šiaurės

TAF: OJAQ 161124Z 1612/1718 36012KT 7000 FEW030 TEMPO 1612/1718 36018KT

Orai ataskaitas ir orų prognozės (METAR, TAF).

turimą stotys yra geltonos ir raudonos taškus žemėlapyje.

Perkelti pele per norėdami pamatyti stoties vardą.

Tada spustelėkite, norėdami matyti oro stebėjimo ir prognozės.

Norėdami pakeisti žemėlapį: spustelėkite ant žalios mygtukų su juodo kryžiaus žemyn,; žalią mygtuką su brūkšneliu, jei norite nutolinti; arba žalių rodyklių gretimoms žemėlapius.


METAR-TAF: